createdAt,value
2018-09-10T00:00:36.789Z,17.46
2018-09-10T00:01:36.858Z,17.44
2018-09-10T00:02:36.775Z,17.37
2018-09-10T00:03:36.772Z,17.30
2018-09-10T00:04:36.754Z,17.31
2018-09-10T00:05:36.735Z,17.36
2018-09-10T00:06:36.738Z,17.34
2018-09-10T00:07:36.750Z,17.36
2018-09-10T00:08:36.753Z,17.34
2018-09-10T00:09:36.709Z,17.34
2018-09-10T00:10:36.695Z,17.25
2018-09-10T00:11:36.684Z,17.34
2018-09-10T00:12:36.676Z,17.36
2018-09-10T00:13:36.695Z,17.38
2018-09-10T00:14:36.703Z,17.40
2018-09-10T00:15:36.636Z,17.43
2018-09-10T00:16:36.631Z,17.36
2018-09-10T00:17:36.609Z,17.37
2018-09-10T00:18:36.604Z,17.36
2018-09-10T00:19:36.606Z,17.37
2018-09-10T00:20:36.600Z,17.36
2018-09-10T00:21:36.583Z,17.36
2018-09-10T00:22:36.560Z,17.34
2018-09-10T00:23:36.557Z,17.34
2018-09-10T00:24:36.545Z,17.26
2018-09-10T00:25:36.562Z,17.22
2018-09-10T00:26:36.550Z,17.15
2018-09-10T00:27:36.509Z,17.21
2018-09-10T00:28:36.507Z,17.16
2018-09-10T00:29:36.492Z,17.14
2018-09-10T00:30:36.493Z,17.16
2018-09-10T00:31:36.472Z,17.06
2018-09-10T00:32:36.451Z,17.06
2018-09-10T00:33:36.446Z,17.18
2018-09-10T00:34:36.439Z,17.06
2018-09-10T00:35:36.463Z,17.04
2018-09-10T00:36:36.412Z,17.11
2018-09-10T00:37:36.404Z,17.12
2018-09-10T00:38:36.420Z,17.04
2018-09-10T00:39:36.378Z,17.12
2018-09-10T00:40:36.375Z,17.15
2018-09-10T00:41:36.351Z,17.12
2018-09-10T00:42:36.372Z,17.15
2018-09-10T00:43:36.337Z,17.12
2018-09-10T00:44:36.332Z,17.18
2018-09-10T00:45:36.319Z,17.22
2018-09-10T00:46:36.313Z,17.12
2018-09-10T00:47:36.304Z,17.08
2018-09-10T00:48:36.288Z,17.16
2018-09-10T00:49:36.268Z,17.16
2018-09-10T00:50:36.271Z,17.19
2018-09-10T00:51:36.263Z,17.08
2018-09-10T00:52:36.264Z,17.12
2018-09-10T00:53:36.240Z,17.12
2018-09-10T00:54:36.434Z,17.08
2018-09-10T00:55:36.210Z,17.12
2018-09-10T00:56:36.200Z,17.06
2018-09-10T00:57:36.192Z,17.11
2018-09-10T00:58:36.205Z,17.06
2018-09-10T00:59:36.176Z,17.04
2018-09-10T01:00:36.164Z,17.12
2018-09-10T01:01:36.145Z,17.11
2018-09-10T01:02:36.140Z,17.21
2018-09-10T01:03:36.164Z,17.16
2018-09-10T01:04:36.116Z,17.14
2018-09-10T01:05:36.096Z,17.16
2018-09-10T01:06:36.087Z,17.15
2018-09-10T01:07:36.093Z,17.04
2018-09-10T01:08:36.109Z,17.03
2018-09-10T01:09:36.096Z,17.01
2018-09-10T01:10:36.084Z,17.03
2018-09-10T01:11:36.040Z,16.98
2018-09-10T01:12:36.028Z,17.03
2018-09-10T01:13:36.017Z,17.06
2018-09-10T01:14:36.012Z,17.07
2018-09-10T01:15:36.036Z,16.96
2018-09-10T01:16:36.015Z,17.01
2018-09-10T01:17:35.968Z,17.00
2018-09-10T01:18:35.968Z,17.06
2018-09-10T01:19:35.946Z,17.00
2018-09-10T01:20:35.984Z,17.00
2018-09-10T01:21:35.939Z,17.11
2018-09-10T01:22:35.923Z,17.04
2018-09-10T01:23:35.914Z,16.97
2018-09-10T01:24:35.899Z,17.03
2018-09-10T01:25:35.923Z,17.00
2018-09-10T01:26:35.884Z,16.96
2018-09-10T01:27:35.873Z,17.06
2018-09-10T01:28:35.862Z,17.06
2018-09-10T01:29:35.845Z,17.03
2018-09-10T01:30:35.835Z,17.04
2018-09-10T01:31:35.826Z,16.98
2018-09-10T01:32:35.819Z,16.98
2018-09-10T01:33:35.807Z,16.96
2018-09-10T01:34:35.791Z,16.98
2018-09-10T01:35:35.781Z,16.93
2018-09-10T01:36:35.778Z,16.93
2018-09-10T01:37:35.761Z,16.91
2018-09-10T01:38:35.744Z,17.00
2018-09-10T01:39:35.748Z,16.94
2018-09-10T01:40:35.723Z,16.97
2018-09-10T01:41:35.719Z,17.01
2018-09-10T01:42:35.704Z,16.98
2018-09-10T01:43:35.688Z,17.00
2018-09-10T01:44:35.688Z,16.98
2018-09-10T01:45:35.808Z,17.06
2018-09-10T01:46:35.659Z,16.97
2018-09-10T01:47:35.662Z,16.97
2018-09-10T01:48:35.650Z,16.98
2018-09-10T01:49:35.626Z,16.96
2018-09-10T01:50:35.616Z,16.97
2018-09-10T01:51:35.634Z,17.06
2018-09-10T01:52:35.601Z,17.03
2018-09-10T01:53:35.585Z,17.03
2018-09-10T01:54:35.588Z,16.98
2018-09-10T01:55:35.566Z,17.01
2018-09-10T01:56:35.550Z,17.04
2018-09-10T01:57:35.534Z,17.08
2018-09-10T01:58:35.527Z,17.06
2018-09-10T01:59:35.526Z,17.00
2018-09-10T02:00:35.504Z,17.04
2018-09-10T02:01:35.491Z,16.98
2018-09-10T02:02:35.481Z,17.04
2018-09-10T02:03:35.478Z,17.04
2018-09-10T02:04:35.493Z,16.96
2018-09-10T02:05:35.448Z,17.04
2018-09-10T02:06:35.505Z,17.04
2018-09-10T02:07:35.434Z,17.06
2018-09-10T02:08:35.420Z,16.98
2018-09-10T02:09:35.423Z,17.03
2018-09-10T02:10:35.409Z,17.04
2018-09-10T02:11:35.381Z,16.98
2018-09-10T02:12:35.388Z,17.08
2018-09-10T02:13:35.373Z,17.01
2018-09-10T02:14:35.351Z,16.98
2018-09-10T02:15:35.341Z,17.03
2018-09-10T02:16:35.326Z,17.06
2018-09-10T02:17:35.696Z,17.07
2018-09-10T02:18:35.316Z,17.07
2018-09-10T02:19:35.306Z,17.06
2018-09-10T02:20:35.293Z,17.12
2018-09-10T02:21:35.286Z,17.12
2018-09-10T02:22:35.271Z,17.11
2018-09-10T02:23:35.360Z,17.08
2018-09-10T02:24:35.251Z,17.18
2018-09-10T02:25:35.245Z,17.14
2018-09-10T02:26:35.228Z,17.11
2018-09-10T02:27:35.283Z,17.12
2018-09-10T02:28:35.208Z,17.12
2018-09-10T02:29:35.401Z,17.16
2018-09-10T02:30:35.244Z,17.21
2018-09-10T02:31:35.179Z,17.11
2018-09-10T02:32:35.160Z,17.04
2018-09-10T02:33:35.164Z,17.11
2018-09-10T02:34:35.141Z,17.19
2018-09-10T02:35:35.122Z,17.08
2018-09-10T02:36:35.155Z,17.11
2018-09-10T02:37:35.111Z,17.11
2018-09-10T02:38:35.189Z,17.12
2018-09-10T02:39:35.090Z,17.21
2018-09-10T02:40:35.077Z,17.08
2018-09-10T02:41:35.068Z,17.21
2018-09-10T02:42:35.058Z,17.04
2018-09-10T02:43:35.049Z,17.14
2018-09-10T02:44:35.043Z,17.12
2018-09-10T02:45:35.096Z,17.11
2018-09-10T02:46:35.013Z,17.11
2018-09-10T02:47:35.006Z,17.08
2018-09-10T02:48:34.997Z,17.04
2018-09-10T02:49:34.983Z,17.07
2018-09-10T02:50:34.963Z,17.14
2018-09-10T02:51:34.991Z,17.06
2018-09-10T02:52:34.950Z,17.08
2018-09-10T02:53:34.939Z,17.06
2018-09-10T02:54:34.928Z,17.04
2018-09-10T02:55:34.907Z,17.11
2018-09-10T02:56:34.910Z,17.08
2018-09-10T02:57:34.924Z,17.08
2018-09-10T02:58:34.882Z,17.12
2018-09-10T02:59:34.873Z,17.01
2018-09-10T03:00:34.859Z,17.00
2018-09-10T03:01:35.230Z,17.04
2018-09-10T03:02:34.834Z,17.01
2018-09-10T03:03:34.825Z,17.04
2018-09-10T03:04:34.822Z,17.03
2018-09-10T03:05:34.802Z,17.04
2018-09-10T03:06:34.798Z,16.98
2018-09-10T03:07:34.800Z,17.08
2018-09-10T03:08:34.919Z,17.07
2018-09-10T03:09:34.760Z,17.11
2018-09-10T03:10:34.751Z,17.19
2018-09-10T03:11:34.740Z,17.11
2018-09-10T03:12:34.735Z,17.08
2018-09-10T03:13:34.719Z,17.04
2018-09-10T03:14:34.718Z,17.03
2018-09-10T03:15:34.690Z,17.08
2018-09-10T03:16:34.695Z,17.11
2018-09-10T03:17:34.671Z,17.11
2018-09-10T03:18:34.657Z,17.15
2018-09-10T03:19:34.713Z,17.14
2018-09-10T03:20:34.646Z,17.15
2018-09-10T03:21:34.626Z,17.14
2018-09-10T03:22:34.620Z,17.14
2018-09-10T03:23:34.608Z,17.12
2018-09-10T03:24:34.591Z,17.15
2018-09-10T03:25:34.656Z,17.08
2018-09-10T03:26:34.580Z,17.14
2018-09-10T03:27:34.569Z,17.19
2018-09-10T03:28:34.555Z,17.06
2018-09-10T03:29:34.548Z,17.06
2018-09-10T03:30:34.535Z,17.11
2018-09-10T03:31:34.523Z,17.04
2018-09-10T03:32:34.512Z,17.07
2018-09-10T03:33:34.567Z,17.08
2018-09-10T03:34:34.497Z,17.04
2018-09-10T03:35:34.513Z,16.97
2018-09-10T03:36:34.469Z,17.00
2018-09-10T03:37:34.467Z,16.93
2018-09-10T03:38:34.451Z,16.94
2018-09-10T03:39:34.433Z,16.83
2018-09-10T03:40:34.811Z,16.94
2018-09-10T03:41:34.423Z,16.85
2018-09-10T03:42:34.412Z,16.79
2018-09-10T03:43:34.395Z,16.89
2018-09-10T03:44:34.396Z,16.85
2018-09-10T03:45:34.368Z,16.91
2018-09-10T03:46:34.369Z,16.93
2018-09-10T03:47:34.388Z,16.88
2018-09-10T03:48:34.338Z,17.04
2018-09-10T03:49:34.328Z,16.98
2018-09-10T03:50:34.319Z,16.93
2018-09-10T03:51:34.318Z,16.94
2018-09-10T03:52:34.350Z,16.89
2018-09-10T03:53:34.287Z,16.86
2018-09-10T03:54:34.282Z,16.81
2018-09-10T03:55:34.269Z,16.81
2018-09-10T03:56:34.253Z,16.82
2018-09-10T03:57:34.239Z,17.01
2018-09-10T03:58:34.298Z,16.94
2018-09-10T03:59:34.472Z,16.93
2018-09-10T04:00:34.215Z,16.93
2018-09-10T04:01:34.200Z,16.86
2018-09-10T04:02:34.195Z,16.89
2018-09-10T04:03:34.181Z,16.85
2018-09-10T04:04:34.177Z,16.86
2018-09-10T04:05:34.156Z,16.78
2018-09-10T04:06:34.141Z,16.79
2018-09-10T04:07:34.135Z,16.76
2018-09-10T04:08:34.114Z,16.73
2018-09-10T04:09:34.195Z,16.82
2018-09-10T04:10:34.108Z,16.78
2018-09-10T04:11:34.097Z,16.78
2018-09-10T04:12:34.073Z,16.76
2018-09-10T04:13:34.073Z,16.89
2018-09-10T04:14:34.061Z,16.85
2018-09-10T04:15:34.361Z,16.85
2018-09-10T04:16:34.039Z,16.97
2018-09-10T04:17:34.020Z,16.89
2018-09-10T04:18:34.025Z,16.88
2018-09-10T04:19:34.008Z,16.88
2018-09-10T04:20:33.995Z,16.85
2018-09-10T04:21:34.017Z,16.85
2018-09-10T04:22:33.970Z,16.86
2018-09-10T04:23:33.952Z,16.88
2018-09-10T04:24:33.951Z,16.97
2018-09-10T04:25:33.947Z,16.97
2018-09-10T04:26:33.985Z,16.94
2018-09-10T04:27:33.911Z,16.96
2018-09-10T04:28:33.906Z,16.94
2018-09-10T04:29:33.893Z,16.83
2018-09-10T04:30:33.901Z,16.88
2018-09-10T04:31:33.872Z,16.86
2018-09-10T04:32:33.937Z,16.91
2018-09-10T04:33:33.854Z,16.91
2018-09-10T04:34:33.842Z,16.94
2018-09-10T04:35:33.833Z,16.86
2018-09-10T04:36:33.817Z,16.86
2018-09-10T04:37:33.809Z,16.71
2018-09-10T04:38:33.802Z,16.73
2018-09-10T04:39:33.782Z,16.78
2018-09-10T04:40:33.771Z,16.75
2018-09-10T04:41:33.766Z,16.75
2018-09-10T04:42:33.808Z,16.70
2018-09-10T04:43:33.743Z,16.71
2018-09-10T04:44:33.728Z,16.66
2018-09-10T04:45:33.717Z,16.68
2018-09-10T04:46:33.705Z,16.63
2018-09-10T04:47:33.693Z,16.71
2018-09-10T04:48:33.690Z,16.75
2018-09-10T04:49:33.739Z,16.76
2018-09-10T04:50:33.667Z,16.75
2018-09-10T04:51:33.647Z,16.81
2018-09-10T04:52:33.640Z,16.76
2018-09-10T04:53:33.662Z,16.68
2018-09-10T04:54:33.623Z,16.73
2018-09-10T04:55:33.675Z,16.78
2018-09-10T04:56:33.600Z,16.82
2018-09-10T04:57:33.578Z,16.76
2018-09-10T04:58:33.580Z,16.71
2018-09-10T04:59:33.567Z,16.70
2018-09-10T05:00:33.551Z,16.67
2018-09-10T05:01:33.565Z,16.78
2018-09-10T05:02:33.530Z,16.75
2018-09-10T05:03:33.518Z,16.71
2018-09-10T05:04:33.558Z,16.68
2018-09-10T05:05:33.497Z,16.60
2018-09-10T05:06:33.882Z,16.67
2018-09-10T05:07:33.465Z,16.73
2018-09-10T05:08:33.462Z,16.67
2018-09-10T05:09:33.464Z,16.67
2018-09-10T05:10:33.447Z,16.68
2018-09-10T05:11:33.444Z,16.52
2018-09-10T05:12:33.425Z,16.52
2018-09-10T05:13:33.442Z,16.61
2018-09-10T05:14:33.410Z,16.61
2018-09-10T05:15:33.418Z,16.61
2018-09-10T05:16:33.376Z,16.64
2018-09-10T05:17:33.401Z,16.58
2018-09-10T05:18:33.358Z,16.58
2018-09-10T05:19:33.408Z,16.56
2018-09-10T05:20:33.324Z,16.60
2018-09-10T05:21:33.321Z,16.71
2018-09-10T05:22:33.300Z,16.64
2018-09-10T05:23:33.302Z,16.58
2018-09-10T05:24:33.298Z,16.56
2018-09-10T05:25:33.287Z,16.53
2018-09-10T05:26:33.263Z,16.52
2018-09-10T05:27:33.259Z,16.63
2018-09-10T05:28:33.399Z,16.53
2018-09-10T05:29:33.232Z,16.58
2018-09-10T05:30:33.222Z,16.66
2018-09-10T05:31:33.208Z,16.66
2018-09-10T05:32:33.195Z,16.61
2018-09-10T05:33:33.223Z,16.67
2018-09-10T05:34:33.234Z,16.68
2018-09-10T05:35:33.160Z,16.67
2018-09-10T05:36:33.150Z,16.66
2018-09-10T05:37:33.146Z,16.70
2018-09-10T05:38:33.132Z,16.67
2018-09-10T05:39:33.127Z,16.64
2018-09-10T05:40:33.123Z,16.70
2018-09-10T05:41:33.112Z,16.67
2018-09-10T05:42:33.082Z,16.66
2018-09-10T05:43:33.078Z,16.70
2018-09-10T05:44:33.069Z,16.66
2018-09-10T05:45:33.065Z,16.67
2018-09-10T05:46:33.059Z,16.56
2018-09-10T05:47:33.133Z,16.64
2018-09-10T05:48:33.026Z,16.61
2018-09-10T05:49:33.004Z,16.73
2018-09-10T05:50:33.006Z,16.67
2018-09-10T05:51:32.993Z,16.67
2018-09-10T05:52:32.982Z,16.68
2018-09-10T05:53:32.970Z,16.68
2018-09-10T05:54:32.959Z,16.67
2018-09-10T05:55:32.980Z,16.64
2018-09-10T05:56:32.937Z,16.56
2018-09-10T05:57:32.962Z,16.70
2018-09-10T05:58:32.915Z,16.53
2018-09-10T05:59:32.903Z,16.67
2018-09-10T06:00:32.890Z,16.61
2018-09-10T06:01:32.874Z,16.66
2018-09-10T06:02:32.899Z,16.63
2018-09-10T06:03:32.871Z,16.73
2018-09-10T06:04:32.847Z,16.63
2018-09-10T06:05:32.839Z,16.67
2018-09-10T06:06:32.833Z,16.71
2018-09-10T06:07:32.815Z,16.63
2018-09-10T06:08:32.814Z,16.66
2018-09-10T06:09:32.906Z,16.67
2018-09-10T06:10:32.826Z,16.68
2018-09-10T06:11:32.772Z,16.76
2018-09-10T06:12:32.755Z,16.78
2018-09-10T06:13:32.750Z,16.71
2018-09-10T06:14:32.734Z,16.70
2018-09-10T06:15:32.727Z,16.75
2018-09-10T06:16:32.753Z,16.70
2018-09-10T06:17:32.712Z,16.67
2018-09-10T06:18:32.691Z,16.73
2018-09-10T06:19:32.737Z,16.70
2018-09-10T06:20:32.678Z,16.70
2018-09-10T06:21:32.659Z,16.66
2018-09-10T06:22:32.654Z,16.68
2018-09-10T06:23:32.639Z,16.67
2018-09-10T06:24:32.624Z,16.66
2018-09-10T06:25:32.621Z,16.66
2018-09-10T06:26:32.603Z,16.67
2018-09-10T06:27:32.592Z,16.68
2018-09-10T06:28:32.585Z,16.63
2018-09-10T06:29:32.576Z,16.66
2018-09-10T06:30:32.598Z,16.68
2018-09-10T06:31:32.546Z,16.68
2018-09-10T06:32:32.542Z,16.71
2018-09-10T06:33:32.524Z,16.78
2018-09-10T06:34:32.516Z,16.81
2018-09-10T06:35:32.513Z,16.71
2018-09-10T06:36:32.499Z,16.71
2018-09-10T06:37:32.499Z,16.71
2018-09-10T06:38:32.480Z,16.75
2018-09-10T06:39:32.462Z,16.78
2018-09-10T06:40:32.452Z,16.91
2018-09-10T06:41:32.438Z,16.86
2018-09-10T06:42:32.458Z,16.83
2018-09-10T06:43:32.419Z,16.93
2018-09-10T06:44:32.408Z,16.91
2018-09-10T06:45:32.450Z,16.83
2018-09-10T06:46:32.392Z,16.82
2018-09-10T06:47:32.369Z,16.94
2018-09-10T06:48:32.363Z,16.89
2018-09-10T06:49:32.367Z,16.96
2018-09-10T06:50:32.334Z,16.94
2018-09-10T06:51:32.460Z,16.89
2018-09-10T06:52:32.318Z,16.94
2018-09-10T06:53:32.320Z,16.94
2018-09-10T06:54:32.300Z,16.89
2018-09-10T06:55:32.290Z,16.98
2018-09-10T06:56:32.286Z,16.91
2018-09-10T06:57:32.271Z,16.97
2018-09-10T06:58:32.251Z,17.04
2018-09-10T06:59:32.239Z,17.06
2018-09-10T07:00:32.245Z,17.03
2018-09-10T07:01:32.221Z,17.07
2018-09-10T07:02:32.241Z,17.07
2018-09-10T07:03:32.203Z,17.08
2018-09-10T07:04:32.201Z,17.12
2018-09-10T07:05:32.187Z,17.15
2018-09-10T07:06:32.239Z,17.19
2018-09-10T07:07:32.165Z,17.12
2018-09-10T07:08:32.459Z,17.16
2018-09-10T07:09:32.143Z,17.14
2018-09-10T07:10:32.124Z,17.18
2018-09-10T07:11:32.119Z,17.16
2018-09-10T07:12:32.125Z,17.15
2018-09-10T07:13:32.099Z,17.26
2018-09-10T07:14:32.106Z,17.30
2018-09-10T07:15:32.074Z,17.28
2018-09-10T07:16:32.069Z,17.38
2018-09-10T07:17:32.070Z,17.38
2018-09-10T07:18:32.045Z,17.43
2018-09-10T07:19:32.065Z,17.51
2018-09-10T07:20:32.014Z,17.44
2018-09-10T07:21:32.019Z,17.43
2018-09-10T07:22:32.006Z,17.52
2018-09-10T07:23:31.987Z,17.70
2018-09-10T07:24:32.003Z,17.58
2018-09-10T07:25:31.973Z,17.55
2018-09-10T07:26:31.971Z,17.54
2018-09-10T07:27:31.977Z,17.54
2018-09-10T07:28:31.942Z,17.54
2018-09-10T07:29:31.960Z,17.55
2018-09-10T07:30:31.925Z,17.59
2018-09-10T07:31:31.941Z,17.62
2018-09-10T07:32:31.898Z,17.66
2018-09-10T07:33:31.937Z,17.64
2018-09-10T07:34:31.920Z,17.66
2018-09-10T07:35:31.871Z,17.59
2018-09-10T07:36:31.855Z,17.55
2018-09-10T07:37:31.850Z,17.62
2018-09-10T07:38:31.844Z,17.62
2018-09-10T07:39:31.845Z,17.72
2018-09-10T07:40:31.820Z,17.75
2018-09-10T07:41:31.805Z,17.82
2018-09-10T07:42:31.795Z,17.90
2018-09-10T07:43:31.822Z,17.87
2018-09-10T07:44:31.767Z,17.84
2018-09-10T07:45:31.797Z,17.92
2018-09-10T07:46:31.760Z,17.82
2018-09-10T07:47:31.751Z,17.87
2018-09-10T07:48:31.739Z,17.92
2018-09-10T07:49:31.725Z,17.99
2018-09-10T07:50:31.743Z,17.99
2018-09-10T07:51:31.739Z,17.90
2018-09-10T07:52:31.704Z,17.99
2018-09-10T07:53:31.679Z,18.00
2018-09-10T07:54:31.774Z,18.12
2018-09-10T07:55:31.662Z,18.12
2018-09-10T07:56:31.679Z,18.17
2018-09-10T07:57:31.652Z,18.10
2018-09-10T07:58:31.633Z,18.10
2018-09-10T07:59:31.631Z,18.15
2018-09-10T08:00:31.622Z,18.23
2018-09-10T08:01:31.658Z,18.32
2018-09-10T08:02:31.597Z,18.23
2018-09-10T08:03:31.580Z,18.37
2018-09-10T08:04:31.566Z,18.47
2018-09-10T08:05:31.573Z,18.39
2018-09-10T08:06:31.561Z,18.47
2018-09-10T08:07:31.552Z,18.45
2018-09-10T08:08:31.531Z,18.44
2018-09-10T08:09:31.559Z,18.52
2018-09-10T08:10:31.519Z,18.58
2018-09-10T08:11:31.514Z,18.65
2018-09-10T08:12:31.496Z,18.73
2018-09-10T08:13:31.497Z,18.78
2018-09-10T08:14:31.529Z,18.91
2018-09-10T08:15:31.472Z,18.94
2018-09-10T08:16:31.527Z,19.00
2018-09-10T08:17:31.454Z,19.08
2018-09-10T08:18:31.467Z,19.02
2018-09-10T08:19:31.438Z,19.16
2018-09-10T08:20:31.447Z,19.10
2018-09-10T08:21:31.416Z,19.21
2018-09-10T08:22:31.408Z,19.07
2018-09-10T08:23:31.392Z,19.19
2018-09-10T08:24:31.426Z,19.22
2018-09-10T08:25:31.381Z,19.16
2018-09-10T08:26:31.378Z,19.28
2018-09-10T08:27:31.355Z,19.28
2018-09-10T08:28:31.373Z,19.16
2018-09-10T08:29:31.353Z,19.18
2018-09-10T08:30:31.344Z,19.18
2018-09-10T08:31:31.328Z,19.28
2018-09-10T08:32:31.305Z,19.22
2018-09-10T08:33:31.342Z,19.28
2018-09-10T08:34:31.297Z,19.37
2018-09-10T08:35:31.365Z,19.39
2018-09-10T08:36:31.272Z,19.36
2018-09-10T08:37:31.273Z,19.37
2018-09-10T08:38:31.252Z,19.41
2018-09-10T08:39:31.255Z,19.47
2018-09-10T08:40:31.250Z,19.47
2018-09-10T08:41:31.236Z,19.48
2018-09-10T08:42:31.220Z,19.54
2018-09-10T08:43:31.218Z,19.56
2018-09-10T08:44:31.216Z,19.61
2018-09-10T08:45:31.221Z,19.58
2018-09-10T08:46:31.190Z,19.56
2018-09-10T08:47:31.188Z,19.68
2018-09-10T08:48:31.178Z,19.66
2018-09-10T08:49:31.163Z,19.66
2018-09-10T08:50:31.180Z,19.68
2018-09-10T08:51:31.144Z,19.68
2018-09-10T08:52:31.471Z,19.73
2018-09-10T08:53:31.127Z,19.69
2018-09-10T08:54:31.370Z,19.78
2018-09-10T08:55:31.204Z,19.71
2018-09-10T08:56:31.100Z,19.69
2018-09-10T08:57:31.096Z,19.76
2018-09-10T08:58:31.121Z,19.69
2018-09-10T08:59:31.115Z,19.68
2018-09-10T09:00:31.131Z,19.66
2018-09-10T09:01:31.056Z,19.66
2018-09-10T09:02:31.047Z,19.71
2018-09-10T09:03:31.073Z,19.66
2018-09-10T09:04:31.040Z,19.76
2018-09-10T09:05:31.012Z,19.77
2018-09-10T09:06:31.081Z,19.68
2018-09-10T09:07:31.011Z,19.69
2018-09-10T09:08:30.997Z,19.69
2018-09-10T09:09:31.002Z,19.76
2018-09-10T09:10:30.969Z,19.68
2018-09-10T09:11:30.965Z,19.66
2018-09-10T09:12:30.965Z,19.62
2018-09-10T09:13:30.950Z,19.66
2018-09-10T09:14:30.973Z,19.65
2018-09-10T09:15:30.949Z,19.68
2018-09-10T09:16:30.917Z,19.61
2018-09-10T09:17:30.922Z,19.84
2018-09-10T09:18:30.916Z,19.76
2018-09-10T09:19:30.959Z,19.77
2018-09-10T09:20:30.881Z,19.74
2018-09-10T09:21:30.882Z,19.74
2018-09-10T09:22:30.871Z,19.81
2018-09-10T09:23:30.888Z,19.74
2018-09-10T09:24:30.865Z,19.77
2018-09-10T09:25:30.874Z,19.68
2018-09-10T09:26:30.843Z,19.77
2018-09-10T09:27:30.832Z,19.83
2018-09-10T09:28:30.822Z,19.74
2018-09-10T09:29:30.819Z,19.83
2018-09-10T09:30:31.000Z,19.92
2018-09-10T09:31:30.790Z,19.94
2018-09-10T09:32:30.791Z,19.92
2018-09-10T09:33:30.784Z,19.87
2018-09-10T09:34:30.763Z,19.87
2018-09-10T09:35:30.764Z,19.91
2018-09-10T09:36:30.762Z,19.91
2018-09-10T09:37:31.008Z,19.86
2018-09-10T09:38:30.744Z,19.77
2018-09-10T09:39:30.740Z,19.86
2018-09-10T09:40:30.710Z,19.88
2018-09-10T09:41:30.718Z,19.88
2018-09-10T09:42:30.701Z,19.88
2018-09-10T09:43:30.804Z,19.95
2018-09-10T09:44:30.685Z,20.03
2018-09-10T09:45:30.667Z,20.02
2018-09-10T09:46:30.673Z,19.98
2018-09-10T09:47:30.655Z,19.99
2018-09-10T09:48:30.651Z,19.99
2018-09-10T09:49:30.651Z,19.84
2018-09-10T09:50:30.634Z,19.87
2018-09-10T09:51:30.629Z,19.84
2018-09-10T09:52:30.615Z,19.87
2018-09-10T09:53:30.602Z,19.83
2018-09-10T09:54:30.634Z,19.99
2018-09-10T09:55:30.584Z,19.99
2018-09-10T09:56:30.590Z,19.94
2018-09-10T09:57:30.578Z,19.98
2018-09-10T09:58:30.566Z,20.06
2018-09-10T09:59:30.592Z,20.13
2018-09-10T10:00:30.559Z,20.11
2018-09-10T10:01:30.534Z,20.23
2018-09-10T10:02:30.542Z,20.18
2018-09-10T10:03:30.554Z,20.31
2018-09-10T10:04:30.571Z,20.28
2018-09-10T10:05:30.517Z,20.23
2018-09-10T10:06:30.490Z,20.17
2018-09-10T10:07:30.492Z,20.10
2018-09-10T10:08:30.517Z,20.01
2018-09-10T10:09:30.500Z,19.95
2018-09-10T10:10:30.470Z,19.98
2018-09-10T10:11:30.465Z,20.02
2018-09-10T10:12:30.500Z,19.99
2018-09-10T10:13:30.444Z,19.99
2018-09-10T10:14:30.440Z,19.99
2018-09-10T10:15:30.424Z,19.96
2018-09-10T10:16:30.453Z,20.02
2018-09-10T10:17:30.411Z,20.11
2018-09-10T10:18:30.406Z,20.10
2018-09-10T10:19:30.445Z,20.02
2018-09-10T10:20:30.382Z,19.99
2018-09-10T10:21:30.371Z,20.03
2018-09-10T10:22:30.362Z,19.94
2018-09-10T10:23:30.358Z,20.06
2018-09-10T10:24:30.357Z,20.02
2018-09-10T10:25:30.373Z,19.98
2018-09-10T10:26:30.342Z,20.03
2018-09-10T10:27:30.328Z,20.02
2018-09-10T10:28:30.312Z,20.11
2018-09-10T10:29:30.340Z,20.10
2018-09-10T10:30:30.293Z,20.18
2018-09-10T10:31:30.353Z,20.26
2018-09-10T10:32:30.278Z,20.24
2018-09-10T10:33:30.277Z,20.18
2018-09-10T10:34:30.272Z,20.21
2018-09-10T10:35:30.258Z,20.11
2018-09-10T10:36:30.258Z,20.08
2018-09-10T10:37:30.266Z,20.16
2018-09-10T10:38:30.236Z,20.17
2018-09-10T10:39:30.234Z,20.20
2018-09-10T10:40:30.208Z,20.21
2018-09-10T10:41:30.206Z,20.23
2018-09-10T10:42:30.262Z,20.28
2018-09-10T10:43:30.987Z,20.35
2018-09-10T10:44:30.186Z,20.35
2018-09-10T10:45:30.173Z,20.31
2018-09-10T10:46:30.165Z,20.31
2018-09-10T10:47:30.191Z,20.33
2018-09-10T10:48:30.162Z,20.32
2018-09-10T10:49:30.143Z,20.32
2018-09-10T10:50:30.131Z,20.28
2018-09-10T10:51:30.130Z,20.32
2018-09-10T10:52:30.115Z,20.31
2018-09-10T10:53:30.497Z,20.21
2018-09-10T10:54:30.111Z,20.26
2018-09-10T10:55:30.092Z,20.21
2018-09-10T10:56:30.088Z,20.23
2018-09-10T10:57:30.072Z,20.35
2018-09-10T10:58:30.064Z,20.39
2018-09-10T10:59:30.090Z,20.35
2018-09-10T11:00:30.054Z,20.28
2018-09-10T11:01:30.042Z,20.38
2018-09-10T11:02:30.037Z,20.32
2018-09-10T11:03:30.035Z,20.43
2018-09-10T11:04:30.011Z,20.48
2018-09-10T11:05:30.012Z,20.38
2018-09-10T11:06:30.009Z,20.47
2018-09-10T11:07:29.991Z,20.43
2018-09-10T11:08:30.038Z,20.59
2018-09-10T11:09:29.970Z,20.47
2018-09-10T11:10:29.959Z,20.54
2018-09-10T11:11:29.953Z,20.59
2018-09-10T11:12:29.946Z,20.69
2018-09-10T11:13:29.945Z,20.79
2018-09-10T11:14:29.972Z,20.74
2018-09-10T11:15:29.933Z,20.82
2018-09-10T11:16:29.922Z,20.84
2018-09-10T11:17:29.915Z,20.92
2018-09-10T11:18:29.940Z,20.97
2018-09-10T11:19:29.937Z,20.92
2018-09-10T11:20:29.882Z,21.03
2018-09-10T11:21:29.871Z,20.94
2018-09-10T11:22:29.882Z,20.88
2018-09-10T11:23:29.874Z,20.89
2018-09-10T11:24:29.910Z,20.88
2018-09-10T11:25:29.855Z,20.85
2018-09-10T11:26:29.836Z,20.94
2018-09-10T11:27:29.836Z,20.80
2018-09-10T11:28:29.825Z,20.89
2018-09-10T11:29:29.826Z,20.84
2018-09-10T11:30:29.840Z,20.88
2018-09-10T11:31:29.805Z,20.87
2018-09-10T11:32:29.797Z,20.85
2018-09-10T11:33:29.785Z,20.87
2018-09-10T11:34:29.820Z,20.84
2018-09-10T11:35:29.800Z,20.82
2018-09-10T11:36:29.805Z,20.89
2018-09-10T11:37:29.754Z,20.97
2018-09-10T11:38:29.751Z,20.87
2018-09-10T11:39:29.740Z,20.97
2018-09-10T11:40:29.768Z,20.97
2018-09-10T11:41:29.727Z,20.94
2018-09-10T11:42:29.720Z,20.98
2018-09-10T11:43:29.719Z,21.06
2018-09-10T11:44:29.709Z,21.06
2018-09-10T11:45:29.728Z,21.06
2018-09-10T11:46:29.751Z,21.04
2018-09-10T11:47:29.681Z,21.04
2018-09-10T11:48:29.678Z,20.95
2018-09-10T11:49:29.661Z,21.03
2018-09-10T11:50:29.711Z,21.09
2018-09-10T11:51:29.654Z,21.06
2018-09-10T11:52:29.645Z,21.07
2018-09-10T11:53:29.642Z,21.10
2018-09-10T11:54:29.625Z,21.14
2018-09-10T11:55:29.644Z,21.16
2018-09-10T11:56:29.998Z,21.14
2018-09-10T11:57:29.601Z,21.12
2018-09-10T11:58:29.601Z,21.09
2018-09-10T11:59:29.591Z,21.13
2018-09-10T12:00:29.579Z,21.13
2018-09-10T12:01:29.562Z,21.22
2018-09-10T12:02:29.611Z,21.12
2018-09-10T12:03:29.589Z,21.10
2018-09-10T12:04:29.549Z,21.14
2018-09-10T12:05:29.543Z,21.13
2018-09-10T12:06:29.536Z,21.14
2018-09-10T12:07:29.563Z,21.07
2018-09-10T12:08:29.572Z,21.09
2018-09-10T12:09:29.509Z,21.16
2018-09-10T12:10:29.508Z,21.17
2018-09-10T12:11:29.500Z,21.17
2018-09-10T12:12:29.489Z,21.12
2018-09-10T12:13:29.537Z,21.14
2018-09-10T12:14:29.477Z,21.17
2018-09-10T12:15:29.476Z,21.19
2018-09-10T12:16:29.459Z,21.07
2018-09-10T12:17:29.457Z,21.14
2018-09-10T12:18:29.463Z,20.97
2018-09-10T12:19:29.473Z,20.97
2018-09-10T12:20:29.436Z,21.01
2018-09-10T12:21:29.474Z,21.06
2018-09-10T12:22:29.415Z,21.01
2018-09-10T12:23:29.403Z,20.95
2018-09-10T12:24:29.418Z,21.01
2018-09-10T12:25:29.392Z,20.95
2018-09-10T12:26:29.412Z,21.04
2018-09-10T12:27:29.371Z,20.99
2018-09-10T12:28:29.375Z,20.88
2018-09-10T12:29:29.606Z,20.89
2018-09-10T12:30:29.345Z,20.89
2018-09-10T12:31:29.330Z,20.89
2018-09-10T12:32:29.405Z,20.84
2018-09-10T12:33:29.313Z,20.85
2018-09-10T12:34:29.311Z,20.74
2018-09-10T12:35:29.300Z,20.70
2018-09-10T12:36:29.322Z,20.69
2018-09-10T12:37:29.288Z,20.73
2018-09-10T12:38:29.277Z,20.61
2018-09-10T12:39:29.299Z,20.57
2018-09-10T12:40:29.262Z,20.73
2018-09-10T12:41:29.280Z,20.72
2018-09-10T12:42:29.242Z,20.72
2018-09-10T12:43:29.240Z,20.80
2018-09-10T12:44:29.228Z,20.67
2018-09-10T12:45:29.218Z,20.82
2018-09-10T12:46:29.267Z,20.69
2018-09-10T12:47:29.204Z,20.84
2018-09-10T12:48:29.196Z,20.88
2018-09-10T12:49:29.186Z,20.82
2018-09-10T12:50:29.180Z,20.82
2018-09-10T12:51:29.609Z,20.92
2018-09-10T12:52:29.157Z,20.89